sensor_id;sensor_type;location;lat;lon;timestamp;pressure;altitude;pressure_sealevel;temperature;humidity
68508;BME280;55510;49.560;19.090;2023-05-16T00:00:40;96034.34;;;6.17;100.00
68508;BME280;55510;49.560;19.090;2023-05-16T00:03:57;96031.19;;;6.08;100.00
68508;BME280;55510;49.560;19.090;2023-05-16T00:06:58;96033.31;;;5.99;100.00
68508;BME280;55510;49.560;19.090;2023-05-16T00:09:59;96034.88;;;5.88;100.00
68508;BME280;55510;49.560;19.090;2023-05-16T00:13:00;96027.84;;;5.82;100.00
68508;BME280;55510;49.560;19.090;2023-05-16T00:16:01;96036.41;;;5.77;100.00
68508;BME280;55510;49.560;19.090;2023-05-16T00:19:02;96028.94;;;5.74;100.00
68508;BME280;55510;49.560;19.090;2023-05-16T00:22:04;96039.72;;;5.73;100.00
68508;BME280;55510;49.560;19.090;2023-05-16T00:25:06;96046.59;;;5.74;100.00
68508;BME280;55510;49.560;19.090;2023-05-16T00:28:08;96045.75;;;5.80;100.00
68508;BME280;55510;49.560;19.090;2023-05-16T00:31:09;96047.94;;;5.83;100.00
68508;BME280;55510;49.560;19.090;2023-05-16T00:34:10;96041.97;;;5.88;100.00
68508;BME280;55510;49.560;19.090;2023-05-16T00:37:11;96028.56;;;5.89;100.00
68508;BME280;55510;49.560;19.090;2023-05-16T00:40:12;96037.06;;;5.91;100.00
68508;BME280;55510;49.560;19.090;2023-05-16T00:43:13;96026.50;;;5.91;100.00
68508;BME280;55510;49.560;19.090;2023-05-16T00:46:13;96039.72;;;5.91;100.00
68508;BME280;55510;49.560;19.090;2023-05-16T00:49:14;96035.47;;;5.90;100.00
68508;BME280;55510;49.560;19.090;2023-05-16T00:52:15;96033.84;;;5.89;100.00
68508;BME280;55510;49.560;19.090;2023-05-16T00:55:16;96026.72;;;5.90;100.00
68508;BME280;55510;49.560;19.090;2023-05-16T00:58:17;96028.13;;;5.92;100.00
68508;BME280;55510;49.560;19.090;2023-05-16T01:01:22;96033.75;;;5.96;100.00
68508;BME280;55510;49.560;19.090;2023-05-16T01:04:24;96038.81;;;5.98;100.00
68508;BME280;55510;49.560;19.090;2023-05-16T01:07:26;96039.63;;;5.98;100.00
68508;BME280;55510;49.560;19.090;2023-05-16T01:10:31;96043.88;;;5.99;100.00
68508;BME280;55510;49.560;19.090;2023-05-16T01:20:38;96028.78;;;5.88;100.00
68508;BME280;55510;49.560;19.090;2023-05-16T01:23:51;96028.28;;;5.79;100.00
68508;BME280;55510;49.560;19.090;2023-05-16T01:26:57;96028.34;;;5.72;100.00
68508;BME280;55510;49.560;19.090;2023-05-16T01:29:58;96022.69;;;5.69;100.00
68508;BME280;55510;49.560;19.090;2023-05-16T01:32:59;96022.50;;;5.70;100.00
68508;BME280;55510;49.560;19.090;2023-05-16T01:42:14;96033.19;;;5.75;100.00
68508;BME280;55510;49.560;19.090;2023-05-16T01:45:35;96034.59;;;5.78;100.00
68508;BME280;55510;49.560;19.090;2023-05-16T01:52:19;96038.09;;;5.72;100.00
68508;BME280;55510;49.560;19.090;2023-05-16T01:58:32;96041.94;;;5.76;100.00
68508;BME280;55510;49.560;19.090;2023-05-16T02:01:33;96041.31;;;5.74;100.00
68508;BME280;55510;49.560;19.090;2023-05-16T02:04:34;96041.31;;;5.74;100.00
68508;BME280;55510;49.560;19.090;2023-05-16T02:07:35;96034.06;;;5.69;100.00
68508;BME280;55510;49.560;19.090;2023-05-16T02:10:35;96032.91;;;5.65;100.00
68508;BME280;55510;49.560;19.090;2023-05-16T02:13:36;96034.28;;;5.68;100.00
68508;BME280;55510;49.560;19.090;2023-05-16T02:16:37;96038.53;;;5.69;100.00
68508;BME280;55510;49.560;19.090;2023-05-16T02:19:38;96045.88;;;5.66;100.00
68508;BME280;55510;49.560;19.090;2023-05-16T02:22:39;96041.03;;;5.63;100.00
68508;BME280;55510;49.560;19.090;2023-05-16T02:25:39;96044.94;;;5.61;100.00
68508;BME280;55510;49.560;19.090;2023-05-16T02:28:40;96036.19;;;5.60;100.00
68508;BME280;55510;49.560;19.090;2023-05-16T02:31:40;96044.69;;;5.62;100.00
68508;BME280;55510;49.560;19.090;2023-05-16T02:34:42;96038.63;;;5.62;100.00
68508;BME280;55510;49.560;19.090;2023-05-16T02:37:42;96041.03;;;5.63;100.00
68508;BME280;55510;49.560;19.090;2023-05-16T02:40:43;96047.13;;;5.64;100.00
68508;BME280;55510;49.560;19.090;2023-05-16T02:43:44;96041.03;;;5.63;100.00
68508;BME280;55510;49.560;19.090;2023-05-16T02:46:44;96042.31;;;5.61;100.00
68508;BME280;55510;49.560;19.090;2023-05-16T02:49:45;96039.06;;;5.59;100.00
68508;BME280;55510;49.560;19.090;2023-05-16T02:52:46;96041.47;;;5.60;100.00
68508;BME280;55510;49.560;19.090;2023-05-16T02:55:47;96034.97;;;5.63;100.00
68508;BME280;55510;49.560;19.090;2023-05-16T02:58:48;96030.84;;;5.67;100.00
68508;BME280;55510;49.560;19.090;2023-05-16T03:01:49;96031.88;;;5.66;100.00
68508;BME280;55510;49.560;19.090;2023-05-16T03:04:50;96033.94;;;5.64;100.00
68508;BME280;55510;49.560;19.090;2023-05-16T03:07:50;96026.22;;;5.62;100.00
68508;BME280;55510;49.560;19.090;2023-05-16T03:10:51;96025.63;;;5.60;100.00
68508;BME280;55510;49.560;19.090;2023-05-16T03:13:51;96041.47;;;5.60;100.00
68508;BME280;55510;49.560;19.090;2023-05-16T03:16:52;96047.59;;;5.61;100.00
68508;BME280;55510;49.560;19.090;2023-05-16T03:19:53;96053.22;;;5.64;100.00
68508;BME280;55510;49.560;19.090;2023-05-16T03:22:54;96043.81;;;5.69;100.00
68508;BME280;55510;49.560;19.090;2023-05-16T03:25:54;96045.00;;;5.73;100.00
68508;BME280;55510;49.560;19.090;2023-05-16T03:28:55;96037.81;;;5.80;100.00
68508;BME280;55510;49.560;19.090;2023-05-16T03:31:56;96044.72;;;5.81;100.00
68508;BME280;55510;49.560;19.090;2023-05-16T03:34:57;96043.25;;;5.85;100.00
68508;BME280;55510;49.560;19.090;2023-05-16T03:37:58;96051.88;;;5.92;100.00
68508;BME280;55510;49.560;19.090;2023-05-16T03:40:58;96046.16;;;5.95;100.00
68508;BME280;55510;49.560;19.090;2023-05-16T03:43:59;96041.25;;;5.99;100.00
68508;BME280;55510;49.560;19.090;2023-05-16T03:47:00;96032.28;;;6.00;100.00
68508;BME280;55510;49.560;19.090;2023-05-16T03:50:02;96042.03;;;6.00;100.00
68508;BME280;55510;49.560;19.090;2023-05-16T03:53:03;96048.16;;;6.00;100.00
68508;BME280;55510;49.560;19.090;2023-05-16T03:56:04;96062.75;;;6.03;100.00
68508;BME280;55510;49.560;19.090;2023-05-16T03:59:05;96053.81;;;6.04;100.00
68508;BME280;55510;49.560;19.090;2023-05-16T04:02:06;96056.25;;;6.05;100.00
68508;BME280;55510;49.560;19.090;2023-05-16T04:05:09;96054.38;;;6.06;100.00
68508;BME280;55510;49.560;19.090;2023-05-16T04:08:09;96067.72;;;6.11;100.00
68508;BME280;55510;49.560;19.090;2023-05-16T04:11:10;96070.09;;;6.19;100.00
68508;BME280;55510;49.560;19.090;2023-05-16T04:14:11;96067.13;;;6.28;100.00
68508;BME280;55510;49.560;19.090;2023-05-16T04:17:12;96072.44;;;6.39;100.00
68508;BME280;55510;49.560;19.090;2023-05-16T04:20:12;96073.06;;;6.53;100.00
68508;BME280;55510;49.560;19.090;2023-05-16T04:23:13;96074.72;;;6.66;100.00
68508;BME280;55510;49.560;19.090;2023-05-16T04:26:14;96066.81;;;6.78;100.00
68508;BME280;55510;49.560;19.090;2023-05-16T04:29:14;96076.63;;;6.90;100.00
68508;BME280;55510;49.560;19.090;2023-05-16T04:32:15;96077.56;;;7.07;100.00
68508;BME280;55510;49.560;19.090;2023-05-16T04:35:16;96086.44;;;7.25;100.00
68508;BME280;55510;49.560;19.090;2023-05-16T04:38:17;96084.59;;;7.37;100.00
68508;BME280;55510;49.560;19.090;2023-05-16T04:41:18;96075.63;;;7.62;100.00
68508;BME280;55510;49.560;19.090;2023-05-16T04:44:18;96071.88;;;7.87;100.00
68508;BME280;55510;49.560;19.090;2023-05-16T04:47:19;96080.63;;;8.00;100.00
68508;BME280;55510;49.560;19.090;2023-05-16T04:50:20;96072.97;;;8.15;100.00
68508;BME280;55510;49.560;19.090;2023-05-16T04:53:21;96074.19;;;8.24;100.00
68508;BME280;55510;49.560;19.090;2023-05-16T04:56:21;96069.66;;;8.37;100.00
68508;BME280;55510;49.560;19.090;2023-05-16T04:59:22;96069.41;;;8.50;100.00
68508;BME280;55510;49.560;19.090;2023-05-16T05:02:23;96070.72;;;8.65;100.00
68508;BME280;55510;49.560;19.090;2023-05-16T05:05:24;96063.56;;;8.82;100.00
68508;BME280;55510;49.560;19.090;2023-05-16T05:08:24;96060.63;;;8.96;100.00
68508;BME280;55510;49.560;19.090;2023-05-16T05:11:25;96049.53;;;8.99;100.00
68508;BME280;55510;49.560;19.090;2023-05-16T05:14:26;96049.94;;;8.91;100.00
68508;BME280;55510;49.560;19.090;2023-05-16T05:17:27;96055.97;;;9.03;100.00
68508;BME280;55510;49.560;19.090;2023-05-16T05:20:28;96059.88;;;9.18;100.00
68508;BME280;55510;49.560;19.090;2023-05-16T05:23:29;96070.44;;;9.29;100.00
68508;BME280;55510;49.560;19.090;2023-05-16T05:26:30;96068.72;;;9.40;100.00
68508;BME280;55510;49.560;19.090;2023-05-16T05:29:31;96054.53;;;9.52;100.00
68508;BME280;55510;49.560;19.090;2023-05-16T05:32:32;96066.34;;;9.61;100.00
68508;BME280;55510;49.560;19.090;2023-05-16T05:35:33;96068.13;;;9.72;100.00
68508;BME280;55510;49.560;19.090;2023-05-16T05:38:33;96069.78;;;9.79;100.00
68508;BME280;55510;49.560;19.090;2023-05-16T05:41:35;96072.56;;;9.89;100.00
68508;BME280;55510;49.560;19.090;2023-05-16T05:44:35;96064.59;;;10.11;100.00
68508;BME280;55510;49.560;19.090;2023-05-16T05:47:37;96061.81;;;10.23;100.00
68508;BME280;55510;49.560;19.090;2023-05-16T05:50:38;96065.75;;;10.43;100.00
68508;BME280;55510;49.560;19.090;2023-05-16T05:53:40;96062.44;;;10.58;99.34
68508;BME280;55510;49.560;19.090;2023-05-16T05:56:40;96065.56;;;10.77;99.28
68508;BME280;55510;49.560;19.090;2023-05-16T05:59:41;96061.19;;;10.93;96.65
68508;BME280;55510;49.560;19.090;2023-05-16T06:02:42;96074.41;;;11.15;96.63
68508;BME280;55510;49.560;19.090;2023-05-16T06:05:43;96067.34;;;11.31;95.42
68508;BME280;55510;49.560;19.090;2023-05-16T06:08:43;96066.59;;;11.46;94.73
68508;BME280;55510;49.560;19.090;2023-05-16T06:11:44;96068.31;;;11.63;94.04
68508;BME280;55510;49.560;19.090;2023-05-16T06:14:45;96069.78;;;11.86;93.44
68508;BME280;55510;49.560;19.090;2023-05-16T06:17:46;96067.53;;;12.16;93.92
68508;BME280;55510;49.560;19.090;2023-05-16T06:20:46;96063.34;;;12.41;93.82
68508;BME280;55510;49.560;19.090;2023-05-16T06:23:47;96067.41;;;12.64;93.26
68508;BME280;55510;49.560;19.090;2023-05-16T06:26:48;96073.28;;;12.87;91.27
68508;BME280;55510;49.560;19.090;2023-05-16T06:29:49;96078.66;;;13.13;91.34
68508;BME280;55510;49.560;19.090;2023-05-16T06:32:50;96082.13;;;13.34;88.66
68508;BME280;55510;49.560;19.090;2023-05-16T06:35:51;96077.06;;;13.48;85.70
68508;BME280;55510;49.560;19.090;2023-05-16T06:38:52;96083.44;;;13.68;86.71
68508;BME280;55510;49.560;19.090;2023-05-16T06:41:53;96084.22;;;13.78;83.61
68508;BME280;55510;49.560;19.090;2023-05-16T06:44:53;96077.50;;;13.97;82.37
68508;BME280;55510;49.560;19.090;2023-05-16T06:47:54;96075.53;;;14.18;82.79
68508;BME280;55510;49.560;19.090;2023-05-16T06:50:56;96080.00;;;14.33;80.06
68508;BME280;55510;49.560;19.090;2023-05-16T06:53:57;96080.69;;;14.59;80.37
68508;BME280;55510;49.560;19.090;2023-05-16T06:56:57;96082.19;;;14.81;77.59
68508;BME280;55510;49.560;19.090;2023-05-16T06:59:58;96075.38;;;14.99;77.07
68508;BME280;55510;49.560;19.090;2023-05-16T07:02:59;96081.13;;;15.17;75.38
68508;BME280;55510;49.560;19.090;2023-05-16T07:05:59;96082.78;;;15.42;76.26
68508;BME280;55510;49.560;19.090;2023-05-16T07:09:00;96079.13;;;15.62;74.85
68508;BME280;55510;49.560;19.090;2023-05-16T07:12:05;96072.28;;;15.75;72.20
68508;BME280;55510;49.560;19.090;2023-05-16T07:15:06;96076.72;;;15.90;73.05
68508;BME280;55510;49.560;19.090;2023-05-16T07:18:07;96079.00;;;16.02;70.99
68508;BME280;55510;49.560;19.090;2023-05-16T07:21:07;96081.56;;;16.13;71.07
68508;BME280;55510;49.560;19.090;2023-05-16T07:24:08;96088.53;;;16.14;67.26
68508;BME280;55510;49.560;19.090;2023-05-16T07:27:09;96100.47;;;16.27;68.86
68508;BME280;55510;49.560;19.090;2023-05-16T07:30:11;96112.91;;;16.42;69.00
68508;BME280;55510;49.560;19.090;2023-05-16T07:33:12;96124.63;;;16.51;68.32
68508;BME280;55510;49.560;19.090;2023-05-16T07:36:13;96121.28;;;16.59;65.68
68508;BME280;55510;49.560;19.090;2023-05-16T07:39:13;96110.81;;;16.77;66.80
68508;BME280;55510;49.560;19.090;2023-05-16T07:42:14;96108.28;;;16.86;67.70
68508;BME280;55510;49.560;19.090;2023-05-16T07:45:15;96106.34;;;16.91;65.95
68508;BME280;55510;49.560;19.090;2023-05-16T07:48:15;96109.03;;;16.91;64.28
68508;BME280;55510;49.560;19.090;2023-05-16T07:51:16;96112.59;;;17.06;65.61
68508;BME280;55510;49.560;19.090;2023-05-16T07:54:17;96111.44;;;17.12;65.28
68508;BME280;55510;49.560;19.090;2023-05-16T07:57:17;96113.31;;;17.31;64.82
68508;BME280;55510;49.560;19.090;2023-05-16T08:00:18;96121.13;;;17.46;65.28
68508;BME280;55510;49.560;19.090;2023-05-16T08:03:19;96112.78;;;17.62;64.43
68508;BME280;55510;49.560;19.090;2023-05-16T08:06:20;96108.59;;;17.56;62.35
68508;BME280;55510;49.560;19.090;2023-05-16T08:09:21;96113.13;;;17.41;61.12
68508;BME280;55510;49.560;19.090;2023-05-16T08:12:23;96111.38;;;17.50;61.62
68508;BME280;55510;49.560;19.090;2023-05-16T08:15:26;96108.75;;;17.78;63.12
68508;BME280;55510;49.560;19.090;2023-05-16T08:18:27;96106.19;;;18.01;62.58
68508;BME280;55510;49.560;19.090;2023-05-16T08:21:28;96103.22;;;18.17;62.36
68508;BME280;55510;49.560;19.090;2023-05-16T08:24:29;96100.72;;;18.20;60.25
68508;BME280;55510;49.560;19.090;2023-05-16T08:27:30;96101.03;;;18.19;59.70
68508;BME280;55510;49.560;19.090;2023-05-16T08:30:30;96087.16;;;18.25;59.74
68508;BME280;55510;49.560;19.090;2023-05-16T08:33:31;96100.44;;;18.22;61.04
68508;BME280;55510;49.560;19.090;2023-05-16T08:36:32;96108.59;;;18.03;59.96
68508;BME280;55510;49.560;19.090;2023-05-16T08:39:34;96099.13;;;18.33;59.98
68508;BME280;55510;49.560;19.090;2023-05-16T08:42:36;96104.66;;;18.51;59.52
68508;BME280;55510;49.560;19.090;2023-05-16T08:45:39;96104.38;;;18.66;61.59
68508;BME280;55510;49.560;19.090;2023-05-16T08:48:41;96103.88;;;18.64;59.10
68508;BME280;55510;49.560;19.090;2023-05-16T08:51:50;96104.03;;;18.82;60.64
68508;BME280;55510;49.560;19.090;2023-05-16T08:54:51;96095.22;;;18.90;58.85
68508;BME280;55510;49.560;19.090;2023-05-16T08:57:53;96090.78;;;18.94;59.47
68508;BME280;55510;49.560;19.090;2023-05-16T09:00:55;96096.69;;;18.96;59.34
68508;BME280;55510;49.560;19.090;2023-05-16T09:03:55;96094.66;;;18.79;59.06
68508;BME280;55510;49.560;19.090;2023-05-16T09:06:56;96096.06;;;18.77;58.77
68508;BME280;55510;49.560;19.090;2023-05-16T09:09:57;96087.97;;;18.77;58.59
68508;BME280;55510;49.560;19.090;2023-05-16T09:12:58;96084.91;;;18.92;58.88
68508;BME280;55510;49.560;19.090;2023-05-16T09:19:12;96085.84;;;19.02;55.67
68508;BME280;55510;49.560;19.090;2023-05-16T09:22:14;96083.94;;;18.88;56.82
68508;BME280;55510;49.560;19.090;2023-05-16T09:25:16;96077.69;;;18.79;56.88
68508;BME280;55510;49.560;19.090;2023-05-16T09:28:17;96085.13;;;18.59;56.63
68508;BME280;55510;49.560;19.090;2023-05-16T09:31:25;96084.28;;;18.73;58.65
68508;BME280;55510;49.560;19.090;2023-05-16T09:34:26;96080.84;;;18.58;56.52
68508;BME280;55510;49.560;19.090;2023-05-16T09:37:26;96073.25;;;18.60;57.63
68508;BME280;55510;49.560;19.090;2023-05-16T09:40:27;96081.09;;;18.70;58.50
68508;BME280;55510;49.560;19.090;2023-05-16T09:43:28;96080.66;;;18.77;58.76
68508;BME280;55510;49.560;19.090;2023-05-16T09:46:28;96076.47;;;18.85;59.25
68508;BME280;55510;49.560;19.090;2023-05-16T09:49:29;96069.06;;;18.91;58.62
68508;BME280;55510;49.560;19.090;2023-05-16T09:52:30;96076.66;;;18.89;56.56
68508;BME280;55510;49.560;19.090;2023-05-16T09:55:31;96077.69;;;18.79;55.39
68508;BME280;55510;49.560;19.090;2023-05-16T09:58:34;96072.66;;;18.86;56.04
68508;BME280;55510;49.560;19.090;2023-05-16T10:01:35;96066.53;;;18.94;56.63
68508;BME280;55510;49.560;19.090;2023-05-16T10:04:36;96057.84;;;18.97;56.75
68508;BME280;55510;49.560;19.090;2023-05-16T10:07:38;96052.47;;;18.97;57.23
68508;BME280;55510;49.560;19.090;2023-05-16T10:10:39;96051.47;;;18.93;55.62
68508;BME280;55510;49.560;19.090;2023-05-16T10:13:41;96041.38;;;18.99;56.90
68508;BME280;55510;49.560;19.090;2023-05-16T10:16:42;96043.84;;;18.95;56.38
68508;BME280;55510;49.560;19.090;2023-05-16T10:19:44;96052.28;;;18.94;56.87
68508;BME280;55510;49.560;19.090;2023-05-16T10:22:45;96056.19;;;18.88;56.26
68508;BME280;55510;49.560;19.090;2023-05-16T10:25:48;96058.59;;;18.75;55.92
68508;BME280;55510;49.560;19.090;2023-05-16T10:28:50;96054.53;;;18.78;55.51
68508;BME280;55510;49.560;19.090;2023-05-16T10:31:51;96057.25;;;18.64;57.15
68508;BME280;55510;49.560;19.090;2023-05-16T10:34:53;96056.59;;;18.58;56.02
68508;BME280;55510;49.560;19.090;2023-05-16T10:37:56;96061.16;;;18.58;57.08
68508;BME280;55510;49.560;19.090;2023-05-16T10:40:58;96056.78;;;18.48;56.29
68508;BME280;55510;49.560;19.090;2023-05-16T10:43:59;96058.81;;;18.42;58.04
68508;BME280;55510;49.560;19.090;2023-05-16T10:46:59;96059.22;;;18.35;57.57
68508;BME280;55510;49.560;19.090;2023-05-16T10:50:01;96058.94;;;18.23;57.73
68508;BME280;55510;49.560;19.090;2023-05-16T10:53:14;96050.84;;;18.23;59.01
68508;BME280;55510;49.560;19.090;2023-05-16T10:56:22;96040.09;;;18.23;58.66
68508;BME280;55510;49.560;19.090;2023-05-16T10:59:24;96042.28;;;18.21;59.49
68508;BME280;55510;49.560;19.090;2023-05-16T11:02:30;96044.66;;;18.22;60.63
68508;BME280;55510;49.560;19.090;2023-05-16T11:05:34;96043.25;;;18.25;59.85
68508;BME280;55510;49.560;19.090;2023-05-16T11:08:36;96052.25;;;18.20;59.78
68508;BME280;55510;49.560;19.090;2023-05-16T11:14:52;96050.72;;;17.86;61.17
68508;BME280;55510;49.560;19.090;2023-05-16T11:18:06;96054.53;;;17.71;59.35
68508;BME280;55510;49.560;19.090;2023-05-16T11:21:08;96055.28;;;17.58;61.41
68508;BME280;55510;49.560;19.090;2023-05-16T11:24:29;96052.78;;;17.47;61.80
68508;BME280;55510;49.560;19.090;2023-05-16T11:27:46;96047.88;;;17.35;64.12
68508;BME280;55510;49.560;19.090;2023-05-16T11:30:49;96047.81;;;17.21;63.43
68508;BME280;55510;49.560;19.090;2023-05-16T11:33:51;96045.72;;;17.04;63.68
68508;BME280;55510;49.560;19.090;2023-05-16T11:36:53;96048.31;;;16.90;64.44
68508;BME280;55510;49.560;19.090;2023-05-16T11:40:00;96046.41;;;16.72;65.67
68508;BME280;55510;49.560;19.090;2023-05-16T11:43:02;96047.66;;;16.60;66.00
68508;BME280;55510;49.560;19.090;2023-05-16T11:46:03;96045.31;;;16.53;68.55
68508;BME280;55510;49.560;19.090;2023-05-16T11:49:04;96048.53;;;16.36;72.02
68508;BME280;55510;49.560;19.090;2023-05-16T11:52:06;96043.28;;;16.26;74.50
68508;BME280;55510;49.560;19.090;2023-05-16T11:55:08;96047.25;;;16.09;75.34
68508;BME280;55510;49.560;19.090;2023-05-16T11:58:12;96039.50;;;15.78;75.37
68508;BME280;55510;49.560;19.090;2023-05-16T12:01:13;96035.41;;;15.62;78.38
68508;BME280;55510;49.560;19.090;2023-05-16T12:04:15;96034.97;;;15.55;80.82
68508;BME280;55510;49.560;19.090;2023-05-16T12:07:16;96031.09;;;15.36;82.82
68508;BME280;55510;49.560;19.090;2023-05-16T12:10:17;96026.59;;;15.32;87.66
68508;BME280;55510;49.560;19.090;2023-05-16T12:13:19;96027.88;;;15.10;87.25
68508;BME280;55510;49.560;19.090;2023-05-16T12:16:21;96028.22;;;14.98;91.45
68508;BME280;55510;49.560;19.090;2023-05-16T12:19:22;96025.81;;;14.97;95.97
68508;BME280;55510;49.560;19.090;2023-05-16T12:22:24;96023.69;;;14.93;97.03
68508;BME280;55510;49.560;19.090;2023-05-16T12:25:33;96027.41;;;15.03;98.24
68508;BME280;55510;49.560;19.090;2023-05-16T12:28:38;96025.88;;;15.21;95.92
68508;BME280;55510;49.560;19.090;2023-05-16T12:31:39;96011.88;;;15.29;89.82
68508;BME280;55510;49.560;19.090;2023-05-16T12:34:48;96013.94;;;15.37;87.16
68508;BME280;55510;49.560;19.090;2023-05-16T12:37:51;96011.41;;;15.46;88.39
68508;BME280;55510;49.560;19.090;2023-05-16T12:40:57;96010.06;;;15.49;85.55
68508;BME280;55510;49.560;19.090;2023-05-16T12:44:14;96010.00;;;15.54;88.16
68508;BME280;55510;49.560;19.090;2023-05-16T12:47:16;96016.69;;;15.57;86.88
68508;BME280;55510;49.560;19.090;2023-05-16T12:50:17;96022.50;;;15.64;87.75
68508;BME280;55510;49.560;19.090;2023-05-16T12:53:18;96021.09;;;15.47;85.52
68508;BME280;55510;49.560;19.090;2023-05-16T12:56:19;96015.47;;;15.44;86.73
68508;BME280;55510;49.560;19.090;2023-05-16T12:59:19;96011.59;;;15.31;86.25
68508;BME280;55510;49.560;19.090;2023-05-16T13:02:20;96007.09;;;15.26;87.69
68508;BME280;55510;49.560;19.090;2023-05-16T13:05:22;96012.75;;;15.19;88.03
68508;BME280;55510;49.560;19.090;2023-05-16T13:08:23;96005.34;;;15.11;88.31
68508;BME280;55510;49.560;19.090;2023-05-16T13:11:24;96000.06;;;15.01;90.03
68508;BME280;55510;49.560;19.090;2023-05-16T13:14:25;96002.88;;;14.85;89.24
68508;BME280;55510;49.560;19.090;2023-05-16T13:17:26;95995.94;;;14.79;90.12
68508;BME280;55510;49.560;19.090;2023-05-16T13:20:29;95992.00;;;14.66;88.23
68508;BME280;55510;49.560;19.090;2023-05-16T13:23:30;95979.69;;;14.65;87.54
68508;BME280;55510;49.560;19.090;2023-05-16T13:26:32;95978.38;;;14.62;87.38
68508;BME280;55510;49.560;19.090;2023-05-16T13:29:33;95990.19;;;14.56;87.26
68508;BME280;55510;49.560;19.090;2023-05-16T13:32:34;95987.00;;;14.54;87.91
68508;BME280;55510;49.560;19.090;2023-05-16T13:35:35;95987.28;;;14.53;88.74
68508;BME280;55510;49.560;19.090;2023-05-16T13:38:35;95979.25;;;14.53;90.87
68508;BME280;55510;49.560;19.090;2023-05-16T13:41:36;95978.44;;;14.52;92.15
68508;BME280;55510;49.560;19.090;2023-05-16T13:44:38;95989.69;;;14.49;95.29
68508;BME280;55510;49.560;19.090;2023-05-16T13:47:38;95982.03;;;14.37;96.47
68508;BME280;55510;49.560;19.090;2023-05-16T13:50:39;95990.97;;;14.22;97.08
68508;BME280;55510;49.560;19.090;2023-05-16T13:53:40;96000.09;;;14.16;97.44
68508;BME280;55510;49.560;19.090;2023-05-16T13:56:41;96001.16;;;14.15;98.61
68508;BME280;55510;49.560;19.090;2023-05-16T13:59:41;96009.50;;;14.03;100.00
68508;BME280;55510;49.560;19.090;2023-05-16T14:02:44;96012.22;;;13.98;100.00
68508;BME280;55510;49.560;19.090;2023-05-16T14:05:45;96016.78;;;13.92;100.00
68508;BME280;55510;49.560;19.090;2023-05-16T14:08:46;96010.63;;;13.86;100.00
68508;BME280;55510;49.560;19.090;2023-05-16T14:11:46;96014.97;;;13.72;100.00
68508;BME280;55510;49.560;19.090;2023-05-16T14:14:47;96016.88;;;13.61;100.00
68508;BME280;55510;49.560;19.090;2023-05-16T14:17:48;96009.66;;;13.61;100.00
68508;BME280;55510;49.560;19.090;2023-05-16T14:20:49;96001.66;;;13.56;100.00
68508;BME280;55510;49.560;19.090;2023-05-16T14:23:50;96003.81;;;13.54;100.00
68508;BME280;55510;49.560;19.090;2023-05-16T14:26:50;96009.41;;;13.53;100.00
68508;BME280;55510;49.560;19.090;2023-05-16T14:29:54;96011.56;;;13.45;100.00
68508;BME280;55510;49.560;19.090;2023-05-16T14:32:55;96009.97;;;13.44;100.00
68508;BME280;55510;49.560;19.090;2023-05-16T14:35:56;96010.75;;;13.45;100.00
68508;BME280;55510;49.560;19.090;2023-05-16T14:38:57;96007.03;;;13.46;100.00
68508;BME280;55510;49.560;19.090;2023-05-16T14:41:57;95995.53;;;13.45;100.00
68508;BME280;55510;49.560;19.090;2023-05-16T14:44:58;95987.50;;;13.40;100.00
68508;BME280;55510;49.560;19.090;2023-05-16T14:47:59;95995.00;;;13.38;100.00
68508;BME280;55510;49.560;19.090;2023-05-16T14:50:59;95997.16;;;13.31;100.00
68508;BME280;55510;49.560;19.090;2023-05-16T14:54:00;96000.38;;;13.28;100.00
68508;BME280;55510;49.560;19.090;2023-05-16T14:57:01;95998.75;;;13.22;100.00
68508;BME280;55510;49.560;19.090;2023-05-16T15:00:03;95998.75;;;13.16;100.00
68508;BME280;55510;49.560;19.090;2023-05-16T15:03:06;96003.59;;;13.09;100.00
68508;BME280;55510;49.560;19.090;2023-05-16T15:06:07;96012.69;;;12.98;100.00
68508;BME280;55510;49.560;19.090;2023-05-16T15:09:08;96007.59;;;12.91;100.00
68508;BME280;55510;49.560;19.090;2023-05-16T15:12:08;96001.72;;;12.84;100.00
68508;BME280;55510;49.560;19.090;2023-05-16T15:15:09;96002.53;;;12.74;100.00
68508;BME280;55510;49.560;19.090;2023-05-16T15:18:10;96007.84;;;12.64;100.00
68508;BME280;55510;49.560;19.090;2023-05-16T15:21:11;96018.78;;;12.57;100.00
68508;BME280;55510;49.560;19.090;2023-05-16T15:24:12;96012.91;;;12.50;100.00
68508;BME280;55510;49.560;19.090;2023-05-16T15:27:12;96019.59;;;12.42;100.00
68508;BME280;55510;49.560;19.090;2023-05-16T15:30:13;96011.56;;;12.37;100.00
68508;BME280;55510;49.560;19.090;2023-05-16T15:33:14;96007.56;;;12.29;100.00
68508;BME280;55510;49.560;19.090;2023-05-16T15:36:15;96007.78;;;12.22;100.00
68508;BME280;55510;49.560;19.090;2023-05-16T15:39:15;96008.31;;;12.19;100.00
68508;BME280;55510;49.560;19.090;2023-05-16T15:42:16;96008.84;;;12.16;100.00
68508;BME280;55510;49.560;19.090;2023-05-16T15:45:19;96004.56;;;12.15;100.00
68508;BME280;55510;49.560;19.090;2023-05-16T15:48:20;95998.44;;;12.14;100.00
68508;BME280;55510;49.560;19.090;2023-05-16T15:51:21;96003.50;;;12.11;100.00
68508;BME280;55510;49.560;19.090;2023-05-16T15:54:21;95986.97;;;12.09;100.00
68508;BME280;55510;49.560;19.090;2023-05-16T15:57:25;95984.53;;;12.07;100.00
68508;BME280;55510;49.560;19.090;2023-05-16T16:00:25;95985.03;;;11.99;100.00
68508;BME280;55510;49.560;19.090;2023-05-16T16:03:26;95991.16;;;11.94;100.00
68508;BME280;55510;49.560;19.090;2023-05-16T16:06:27;95983.09;;;11.84;100.00
68508;BME280;55510;49.560;19.090;2023-05-16T16:09:27;95988.72;;;11.82;100.00
68508;BME280;55510;49.560;19.090;2023-05-16T16:12:28;95980.41;;;11.73;100.00